sensor_id;sensor_type;location;lat;lon;timestamp;P1;durP1;ratioP1;P2;durP2;ratioP2
60935;SDS011;46804;51.786;19.520;2023-04-15T00:02:36;9.80;;;5.70;;
60935;SDS011;46804;51.786;19.520;2023-04-15T00:06:37;8.25;;;5.70;;
60935;SDS011;46804;51.786;19.520;2023-04-15T00:10:39;9.38;;;6.07;;
60935;SDS011;46804;51.786;19.520;2023-04-15T00:14:39;10.02;;;5.85;;
60935;SDS011;46804;51.786;19.520;2023-04-15T00:18:40;9.07;;;6.03;;
60935;SDS011;46804;51.786;19.520;2023-04-15T00:22:41;9.60;;;6.10;;
60935;SDS011;46804;51.786;19.520;2023-04-15T00:26:42;8.70;;;5.88;;
60935;SDS011;46804;51.786;19.520;2023-04-15T00:30:43;11.02;;;6.07;;
60935;SDS011;46804;51.786;19.520;2023-04-15T00:34:44;8.50;;;5.50;;
60935;SDS011;46804;51.786;19.520;2023-04-15T00:38:45;12.52;;;5.88;;
60935;SDS011;46804;51.786;19.520;2023-04-15T00:42:46;12.38;;;6.35;;
60935;SDS011;46804;51.786;19.520;2023-04-15T00:46:47;10.50;;;5.25;;
60935;SDS011;46804;51.786;19.520;2023-04-15T00:50:50;8.40;;;5.57;;
60935;SDS011;46804;51.786;19.520;2023-04-15T00:54:51;9.95;;;5.85;;
60935;SDS011;46804;51.786;19.520;2023-04-15T00:58:53;8.70;;;5.95;;
60935;SDS011;46804;51.786;19.520;2023-04-15T01:02:54;12.68;;;6.25;;
60935;SDS011;46804;51.786;19.520;2023-04-15T01:06:54;12.77;;;5.75;;
60935;SDS011;46804;51.786;19.520;2023-04-15T01:10:55;9.55;;;6.18;;
60935;SDS011;46804;51.786;19.520;2023-04-15T01:14:58;10.13;;;5.82;;
60935;SDS011;46804;51.786;19.520;2023-04-15T01:18:58;8.73;;;5.55;;
60935;SDS011;46804;51.786;19.520;2023-04-15T01:22:59;10.27;;;6.03;;
60935;SDS011;46804;51.786;19.520;2023-04-15T01:27:00;10.95;;;6.90;;
60935;SDS011;46804;51.786;19.520;2023-04-15T01:31:11;9.50;;;6.40;;
60935;SDS011;46804;51.786;19.520;2023-04-15T01:35:13;10.70;;;7.22;;
60935;SDS011;46804;51.786;19.520;2023-04-15T01:39:13;10.65;;;6.35;;
60935;SDS011;46804;51.786;19.520;2023-04-15T01:43:14;13.85;;;7.68;;
60935;SDS011;46804;51.786;19.520;2023-04-15T01:47:16;10.40;;;6.57;;
60935;SDS011;46804;51.786;19.520;2023-04-15T01:51:17;11.38;;;7.60;;
60935;SDS011;46804;51.786;19.520;2023-04-15T01:55:17;11.63;;;7.53;;
60935;SDS011;46804;51.786;19.520;2023-04-15T01:59:18;11.95;;;7.95;;
60935;SDS011;46804;51.786;19.520;2023-04-15T02:03:19;14.88;;;8.85;;
60935;SDS011;46804;51.786;19.520;2023-04-15T02:07:19;12.23;;;8.25;;
60935;SDS011;46804;51.786;19.520;2023-04-15T02:11:20;14.68;;;8.90;;
60935;SDS011;46804;51.786;19.520;2023-04-15T02:15:22;11.88;;;8.40;;
60935;SDS011;46804;51.786;19.520;2023-04-15T02:19:23;13.30;;;8.60;;
60935;SDS011;46804;51.786;19.520;2023-04-15T02:23:24;14.35;;;8.93;;
60935;SDS011;46804;51.786;19.520;2023-04-15T02:27:25;14.27;;;9.40;;
60935;SDS011;46804;51.786;19.520;2023-04-15T02:31:27;13.43;;;8.77;;
60935;SDS011;46804;51.786;19.520;2023-04-15T02:35:28;12.40;;;8.50;;
60935;SDS011;46804;51.786;19.520;2023-04-15T02:39:29;13.35;;;8.18;;
60935;SDS011;46804;51.786;19.520;2023-04-15T02:43:29;13.20;;;8.55;;
60935;SDS011;46804;51.786;19.520;2023-04-15T02:47:30;11.85;;;8.32;;
60935;SDS011;46804;51.786;19.520;2023-04-15T02:51:31;13.93;;;9.43;;
60935;SDS011;46804;51.786;19.520;2023-04-15T02:55:32;16.42;;;9.35;;
60935;SDS011;46804;51.786;19.520;2023-04-15T02:59:32;13.63;;;9.20;;
60935;SDS011;46804;51.786;19.520;2023-04-15T03:03:33;15.35;;;9.55;;
60935;SDS011;46804;51.786;19.520;2023-04-15T03:07:34;14.50;;;9.60;;
60935;SDS011;46804;51.786;19.520;2023-04-15T03:11:35;17.02;;;10.18;;
60935;SDS011;46804;51.786;19.520;2023-04-15T03:15:39;15.90;;;10.63;;
60935;SDS011;46804;51.786;19.520;2023-04-15T03:19:41;16.38;;;10.75;;
60935;SDS011;46804;51.786;19.520;2023-04-15T03:23:41;13.70;;;9.18;;
60935;SDS011;46804;51.786;19.520;2023-04-15T03:27:42;16.67;;;10.38;;
60935;SDS011;46804;51.786;19.520;2023-04-15T03:31:43;15.80;;;9.85;;
60935;SDS011;46804;51.786;19.520;2023-04-15T03:35:43;17.10;;;10.18;;
60935;SDS011;46804;51.786;19.520;2023-04-15T03:39:44;14.13;;;9.32;;
60935;SDS011;46804;51.786;19.520;2023-04-15T03:43:45;13.25;;;8.68;;
60935;SDS011;46804;51.786;19.520;2023-04-15T03:47:46;14.73;;;9.27;;
60935;SDS011;46804;51.786;19.520;2023-04-15T03:51:47;15.15;;;10.52;;
60935;SDS011;46804;51.786;19.520;2023-04-15T03:55:47;15.07;;;9.18;;
60935;SDS011;46804;51.786;19.520;2023-04-15T03:59:48;16.88;;;10.07;;
60935;SDS011;46804;51.786;19.520;2023-04-15T04:03:49;13.85;;;8.80;;
60935;SDS011;46804;51.786;19.520;2023-04-15T04:07:49;14.48;;;9.32;;
60935;SDS011;46804;51.786;19.520;2023-04-15T04:11:50;16.50;;;9.82;;
60935;SDS011;46804;51.786;19.520;2023-04-15T04:15:51;15.57;;;9.95;;
60935;SDS011;46804;51.786;19.520;2023-04-15T04:19:51;17.20;;;11.05;;
60935;SDS011;46804;51.786;19.520;2023-04-15T04:23:52;15.85;;;10.38;;
60935;SDS011;46804;51.786;19.520;2023-04-15T04:27:53;14.13;;;8.85;;
60935;SDS011;46804;51.786;19.520;2023-04-15T04:31:53;15.43;;;10.52;;
60935;SDS011;46804;51.786;19.520;2023-04-15T04:35:54;13.07;;;8.80;;
60935;SDS011;46804;51.786;19.520;2023-04-15T04:39:55;14.32;;;8.85;;
60935;SDS011;46804;51.786;19.520;2023-04-15T04:43:56;13.50;;;9.68;;
60935;SDS011;46804;51.786;19.520;2023-04-15T04:47:56;16.77;;;9.18;;
60935;SDS011;46804;51.786;19.520;2023-04-15T04:51:57;13.10;;;8.43;;
60935;SDS011;46804;51.786;19.520;2023-04-15T04:55:58;13.98;;;9.23;;
60935;SDS011;46804;51.786;19.520;2023-04-15T04:59:59;14.65;;;8.43;;
60935;SDS011;46804;51.786;19.520;2023-04-15T05:04:00;15.25;;;8.60;;
60935;SDS011;46804;51.786;19.520;2023-04-15T05:08:00;12.40;;;8.55;;
60935;SDS011;46804;51.786;19.520;2023-04-15T05:12:02;14.50;;;8.45;;
60935;SDS011;46804;51.786;19.520;2023-04-15T05:16:04;12.50;;;8.52;;
60935;SDS011;46804;51.786;19.520;2023-04-15T05:20:05;14.23;;;9.40;;
60935;SDS011;46804;51.786;19.520;2023-04-15T05:24:06;13.40;;;9.27;;
60935;SDS011;46804;51.786;19.520;2023-04-15T05:28:07;12.57;;;7.65;;
60935;SDS011;46804;51.786;19.520;2023-04-15T05:32:08;11.80;;;7.05;;
60935;SDS011;46804;51.786;19.520;2023-04-15T05:36:09;12.07;;;7.65;;
60935;SDS011;46804;51.786;19.520;2023-04-15T05:40:09;10.30;;;6.85;;
60935;SDS011;46804;51.786;19.520;2023-04-15T05:44:10;9.98;;;6.90;;
60935;SDS011;46804;51.786;19.520;2023-04-15T05:48:11;12.07;;;6.78;;
60935;SDS011;46804;51.786;19.520;2023-04-15T05:52:12;12.23;;;7.35;;
60935;SDS011;46804;51.786;19.520;2023-04-15T05:56:12;13.10;;;7.75;;
60935;SDS011;46804;51.786;19.520;2023-04-15T06:00:13;12.65;;;8.02;;
60935;SDS011;46804;51.786;19.520;2023-04-15T06:04:14;13.25;;;8.20;;
60935;SDS011;46804;51.786;19.520;2023-04-15T06:08:16;10.10;;;6.55;;
60935;SDS011;46804;51.786;19.520;2023-04-15T06:12:17;10.48;;;6.68;;
60935;SDS011;46804;51.786;19.520;2023-04-15T06:16:17;11.90;;;7.05;;
60935;SDS011;46804;51.786;19.520;2023-04-15T06:20:18;11.05;;;6.93;;
60935;SDS011;46804;51.786;19.520;2023-04-15T06:24:19;12.45;;;7.53;;
60935;SDS011;46804;51.786;19.520;2023-04-15T06:28:20;11.23;;;7.57;;
60935;SDS011;46804;51.786;19.520;2023-04-15T06:32:21;10.70;;;6.85;;
60935;SDS011;46804;51.786;19.520;2023-04-15T06:36:21;10.13;;;7.28;;
60935;SDS011;46804;51.786;19.520;2023-04-15T06:40:22;12.57;;;7.85;;
60935;SDS011;46804;51.786;19.520;2023-04-15T06:44:23;24.48;;;14.68;;
60935;SDS011;46804;51.786;19.520;2023-04-15T06:48:24;19.38;;;11.20;;
60935;SDS011;46804;51.786;19.520;2023-04-15T06:52:25;25.90;;;12.40;;
60935;SDS011;46804;51.786;19.520;2023-04-15T06:56:26;72.85;;;33.17;;
60935;SDS011;46804;51.786;19.520;2023-04-15T07:00:26;66.97;;;34.10;;
60935;SDS011;46804;51.786;19.520;2023-04-15T07:04:28;16.02;;;10.73;;
60935;SDS011;46804;51.786;19.520;2023-04-15T07:08:28;18.58;;;12.15;;
60935;SDS011;46804;51.786;19.520;2023-04-15T07:12:30;16.42;;;11.07;;
60935;SDS011;46804;51.786;19.520;2023-04-15T07:16:30;23.40;;;11.30;;
60935;SDS011;46804;51.786;19.520;2023-04-15T07:20:31;23.65;;;12.77;;
60935;SDS011;46804;51.786;19.520;2023-04-15T07:24:32;20.67;;;10.35;;
60935;SDS011;46804;51.786;19.520;2023-04-15T07:28:33;15.15;;;10.63;;
60935;SDS011;46804;51.786;19.520;2023-04-15T07:32:34;32.92;;;22.75;;
60935;SDS011;46804;51.786;19.520;2023-04-15T07:36:34;19.85;;;11.07;;
60935;SDS011;46804;51.786;19.520;2023-04-15T07:40:36;40.17;;;20.90;;
60935;SDS011;46804;51.786;19.520;2023-04-15T07:44:36;22.83;;;15.60;;
60935;SDS011;46804;51.786;19.520;2023-04-15T07:48:37;33.75;;;17.95;;
60935;SDS011;46804;51.786;19.520;2023-04-15T07:52:38;104.22;;;37.25;;
60935;SDS011;46804;51.786;19.520;2023-04-15T07:56:38;18.38;;;11.45;;
60935;SDS011;46804;51.786;19.520;2023-04-15T08:00:40;46.60;;;26.15;;
60935;SDS011;46804;51.786;19.520;2023-04-15T08:04:41;43.70;;;24.25;;
60935;SDS011;46804;51.786;19.520;2023-04-15T08:08:41;23.92;;;16.40;;
60935;SDS011;46804;51.786;19.520;2023-04-15T08:12:42;22.15;;;14.45;;
60935;SDS011;46804;51.786;19.520;2023-04-15T08:16:43;20.48;;;13.60;;
60935;SDS011;46804;51.786;19.520;2023-04-15T08:20:44;23.75;;;15.23;;
60935;SDS011;46804;51.786;19.520;2023-04-15T08:24:44;26.45;;;16.33;;
60935;SDS011;46804;51.786;19.520;2023-04-15T08:28:46;23.85;;;13.98;;
60935;SDS011;46804;51.786;19.520;2023-04-15T08:32:47;31.42;;;17.83;;
60935;SDS011;46804;51.786;19.520;2023-04-15T08:36:49;37.65;;;17.75;;
60935;SDS011;46804;51.786;19.520;2023-04-15T08:40:50;23.75;;;12.00;;
60935;SDS011;46804;51.786;19.520;2023-04-15T08:44:51;59.75;;;24.70;;
60935;SDS011;46804;51.786;19.520;2023-04-15T08:48:54;59.05;;;25.98;;
60935;SDS011;46804;51.786;19.520;2023-04-15T08:52:59;59.40;;;21.55;;
60935;SDS011;46804;51.786;19.520;2023-04-15T08:57:01;28.38;;;14.40;;
60935;SDS011;46804;51.786;19.520;2023-04-15T09:01:02;61.45;;;22.10;;
60935;SDS011;46804;51.786;19.520;2023-04-15T09:05:03;22.83;;;11.18;;
60935;SDS011;46804;51.786;19.520;2023-04-15T09:09:05;22.90;;;13.17;;
60935;SDS011;46804;51.786;19.520;2023-04-15T09:13:06;17.55;;;9.77;;
60935;SDS011;46804;51.786;19.520;2023-04-15T09:17:09;15.60;;;9.88;;
60935;SDS011;46804;51.786;19.520;2023-04-15T09:21:12;16.48;;;10.80;;
60935;SDS011;46804;51.786;19.520;2023-04-15T09:29:15;15.02;;;9.48;;
60935;SDS011;46804;51.786;19.520;2023-04-15T09:33:17;20.10;;;10.97;;
60935;SDS011;46804;51.786;19.520;2023-04-15T09:37:33;15.73;;;8.27;;
60935;SDS011;46804;51.786;19.520;2023-04-15T09:41:35;15.95;;;9.35;;
60935;SDS011;46804;51.786;19.520;2023-04-15T09:45:36;15.20;;;9.80;;
60935;SDS011;46804;51.786;19.520;2023-04-15T09:49:36;15.35;;;9.07;;
60935;SDS011;46804;51.786;19.520;2023-04-15T09:53:37;12.43;;;8.85;;
60935;SDS011;46804;51.786;19.520;2023-04-15T09:57:38;13.63;;;10.43;;
60935;SDS011;46804;51.786;19.520;2023-04-15T10:01:41;15.48;;;8.23;;
60935;SDS011;46804;51.786;19.520;2023-04-15T10:05:42;12.85;;;7.68;;
60935;SDS011;46804;51.786;19.520;2023-04-15T10:09:44;11.90;;;7.93;;
60935;SDS011;46804;51.786;19.520;2023-04-15T10:13:45;13.80;;;8.68;;
60935;SDS011;46804;51.786;19.520;2023-04-15T10:17:50;13.10;;;8.40;;
60935;SDS011;46804;51.786;19.520;2023-04-15T10:21:53;15.82;;;10.10;;
60935;SDS011;46804;51.786;19.520;2023-04-15T10:25:55;14.20;;;8.77;;
60935;SDS011;46804;51.786;19.520;2023-04-15T10:29:57;12.45;;;8.35;;
60935;SDS011;46804;51.786;19.520;2023-04-15T10:34:00;11.63;;;8.05;;
60935;SDS011;46804;51.786;19.520;2023-04-15T10:42:33;12.70;;;8.27;;
60935;SDS011;46804;51.786;19.520;2023-04-15T10:50:36;11.70;;;7.25;;
60935;SDS011;46804;51.786;19.520;2023-04-15T10:54:37;10.82;;;7.05;;
60935;SDS011;46804;51.786;19.520;2023-04-15T10:58:42;12.43;;;7.75;;
60935;SDS011;46804;51.786;19.520;2023-04-15T11:06:46;9.15;;;6.82;;
60935;SDS011;46804;51.786;19.520;2023-04-15T11:11:05;13.38;;;9.38;;
60935;SDS011;46804;51.786;19.520;2023-04-15T11:19:35;11.05;;;7.03;;
60935;SDS011;46804;51.786;19.520;2023-04-15T11:23:38;11.38;;;7.13;;
60935;SDS011;46804;51.786;19.520;2023-04-15T11:27:49;9.18;;;6.35;;
60935;SDS011;46804;51.786;19.520;2023-04-15T11:31:50;8.60;;;6.30;;
60935;SDS011;46804;51.786;19.520;2023-04-15T11:35:53;13.20;;;6.38;;
60935;SDS011;46804;51.786;19.520;2023-04-15T11:39:55;8.00;;;5.70;;
60935;SDS011;46804;51.786;19.520;2023-04-15T11:43:55;12.50;;;6.57;;
60935;SDS011;46804;51.786;19.520;2023-04-15T11:48:03;8.93;;;5.55;;
60935;SDS011;46804;51.786;19.520;2023-04-15T11:52:11;7.97;;;5.43;;
60935;SDS011;46804;51.786;19.520;2023-04-15T11:56:19;7.60;;;5.40;;
60935;SDS011;46804;51.786;19.520;2023-04-15T12:00:24;8.18;;;5.82;;
60935;SDS011;46804;51.786;19.520;2023-04-15T12:04:25;14.30;;;9.00;;
60935;SDS011;46804;51.786;19.520;2023-04-15T12:08:26;8.45;;;4.43;;
60935;SDS011;46804;51.786;19.520;2023-04-15T12:12:55;9.43;;;5.00;;
60935;SDS011;46804;51.786;19.520;2023-04-15T12:16:57;15.98;;;7.50;;
60935;SDS011;46804;51.786;19.520;2023-04-15T12:21:03;12.88;;;6.32;;
60935;SDS011;46804;51.786;19.520;2023-04-15T12:25:10;5.38;;;3.47;;
60935;SDS011;46804;51.786;19.520;2023-04-15T12:29:12;5.15;;;3.10;;
60935;SDS011;46804;51.786;19.520;2023-04-15T12:33:14;11.40;;;5.07;;
60935;SDS011;46804;51.786;19.520;2023-04-15T12:37:14;22.85;;;6.63;;
60935;SDS011;46804;51.786;19.520;2023-04-15T12:41:15;7.85;;;3.70;;
60935;SDS011;46804;51.786;19.520;2023-04-15T12:45:16;14.27;;;5.93;;
60935;SDS011;46804;51.786;19.520;2023-04-15T12:49:17;6.82;;;3.88;;
60935;SDS011;46804;51.786;19.520;2023-04-15T12:53:20;8.57;;;4.40;;
60935;SDS011;46804;51.786;19.520;2023-04-15T12:57:21;6.82;;;4.18;;
60935;SDS011;46804;51.786;19.520;2023-04-15T13:01:21;8.00;;;3.97;;
60935;SDS011;46804;51.786;19.520;2023-04-15T13:05:22;7.07;;;4.15;;
60935;SDS011;46804;51.786;19.520;2023-04-15T13:09:23;6.07;;;3.85;;
60935;SDS011;46804;51.786;19.520;2023-04-15T13:13:24;8.85;;;4.63;;
60935;SDS011;46804;51.786;19.520;2023-04-15T13:17:25;11.77;;;6.55;;
60935;SDS011;46804;51.786;19.520;2023-04-15T13:21:26;19.33;;;7.97;;
60935;SDS011;46804;51.786;19.520;2023-04-15T13:25:27;12.27;;;5.28;;
60935;SDS011;46804;51.786;19.520;2023-04-15T13:29:28;13.57;;;7.65;;
60935;SDS011;46804;51.786;19.520;2023-04-15T13:33:29;11.27;;;5.50;;
60935;SDS011;46804;51.786;19.520;2023-04-15T13:37:30;7.47;;;4.40;;
60935;SDS011;46804;51.786;19.520;2023-04-15T13:41:31;6.70;;;4.10;;
60935;SDS011;46804;51.786;19.520;2023-04-15T13:45:32;11.30;;;6.60;;
60935;SDS011;46804;51.786;19.520;2023-04-15T13:49:33;8.00;;;4.85;;
60935;SDS011;46804;51.786;19.520;2023-04-15T13:53:33;7.78;;;4.68;;
60935;SDS011;46804;51.786;19.520;2023-04-15T13:57:35;6.45;;;4.30;;
60935;SDS011;46804;51.786;19.520;2023-04-15T14:01:36;7.05;;;4.55;;
60935;SDS011;46804;51.786;19.520;2023-04-15T14:05:37;7.28;;;4.47;;
60935;SDS011;46804;51.786;19.520;2023-04-15T14:09:37;7.68;;;4.07;;
60935;SDS011;46804;51.786;19.520;2023-04-15T14:13:38;7.57;;;4.18;;
60935;SDS011;46804;51.786;19.520;2023-04-15T14:17:39;7.05;;;4.60;;
60935;SDS011;46804;51.786;19.520;2023-04-15T14:21:41;8.10;;;4.53;;
60935;SDS011;46804;51.786;19.520;2023-04-15T14:25:42;8.18;;;4.68;;
60935;SDS011;46804;51.786;19.520;2023-04-15T14:29:43;6.85;;;4.30;;
60935;SDS011;46804;51.786;19.520;2023-04-15T14:33:43;9.82;;;3.60;;
60935;SDS011;46804;51.786;19.520;2023-04-15T14:37:44;5.05;;;3.20;;
60935;SDS011;46804;51.786;19.520;2023-04-15T14:41:45;5.88;;;3.85;;
60935;SDS011;46804;51.786;19.520;2023-04-15T14:45:47;8.63;;;4.63;;
60935;SDS011;46804;51.786;19.520;2023-04-15T14:49:48;6.80;;;4.68;;
60935;SDS011;46804;51.786;19.520;2023-04-15T14:53:49;6.95;;;4.82;;
60935;SDS011;46804;51.786;19.520;2023-04-15T14:57:49;9.23;;;5.43;;
60935;SDS011;46804;51.786;19.520;2023-04-15T15:01:51;9.43;;;5.40;;
60935;SDS011;46804;51.786;19.520;2023-04-15T15:05:52;10.07;;;5.63;;
60935;SDS011;46804;51.786;19.520;2023-04-15T15:09:53;11.05;;;5.68;;
60935;SDS011;46804;51.786;19.520;2023-04-15T15:13:55;13.50;;;6.78;;
60935;SDS011;46804;51.786;19.520;2023-04-15T15:17:56;10.48;;;6.05;;
60935;SDS011;46804;51.786;19.520;2023-04-15T15:21:57;14.00;;;6.53;;
60935;SDS011;46804;51.786;19.520;2023-04-15T15:25:58;14.05;;;7.22;;
60935;SDS011;46804;51.786;19.520;2023-04-15T15:29:59;11.60;;;6.30;;
60935;SDS011;46804;51.786;19.520;2023-04-15T15:34:00;12.68;;;7.00;;
60935;SDS011;46804;51.786;19.520;2023-04-15T15:38:01;19.48;;;11.98;;
60935;SDS011;46804;51.786;19.520;2023-04-15T15:42:02;15.45;;;8.70;;
60935;SDS011;46804;51.786;19.520;2023-04-15T15:46:02;14.48;;;8.68;;
60935;SDS011;46804;51.786;19.520;2023-04-15T15:50:03;17.52;;;10.93;;
60935;SDS011;46804;51.786;19.520;2023-04-15T15:54:04;18.75;;;9.88;;
60935;SDS011;46804;51.786;19.520;2023-04-15T15:58:05;18.98;;;8.90;;
60935;SDS011;46804;51.786;19.520;2023-04-15T16:02:09;18.88;;;10.32;;
60935;SDS011;46804;51.786;19.520;2023-04-15T16:06:10;20.63;;;11.15;;
60935;SDS011;46804;51.786;19.520;2023-04-15T16:10:11;21.00;;;12.48;;
60935;SDS011;46804;51.786;19.520;2023-04-15T16:14:13;22.05;;;14.18;;
60935;SDS011;46804;51.786;19.520;2023-04-15T16:18:14;17.85;;;11.10;;
60935;SDS011;46804;51.786;19.520;2023-04-15T16:22:15;14.57;;;8.82;;
60935;SDS011;46804;51.786;19.520;2023-04-15T16:26:16;13.30;;;8.68;;
60935;SDS011;46804;51.786;19.520;2023-04-15T16:30:17;12.57;;;9.20;;
60935;SDS011;46804;51.786;19.520;2023-04-15T16:34:19;12.70;;;8.52;;
60935;SDS011;46804;51.786;19.520;2023-04-15T16:38:20;13.52;;;8.27;;
60935;SDS011;46804;51.786;19.520;2023-04-15T16:42:21;14.48;;;8.02;;
60935;SDS011;46804;51.786;19.520;2023-04-15T16:46:22;12.82;;;7.65;;
60935;SDS011;46804;51.786;19.520;2023-04-15T16:50:23;14.63;;;9.10;;
60935;SDS011;46804;51.786;19.520;2023-04-15T16:54:23;15.38;;;9.02;;
60935;SDS011;46804;51.786;19.520;2023-04-15T16:58:24;14.48;;;9.80;;
60935;SDS011;46804;51.786;19.520;2023-04-15T17:02:25;16.00;;;9.30;;
60935;SDS011;46804;51.786;19.520;2023-04-15T17:06:25;14.27;;;8.48;;
60935;SDS011;46804;51.786;19.520;2023-04-15T17:10:26;14.75;;;8.30;;
60935;SDS011;46804;51.786;19.520;2023-04-15T17:14:27;14.43;;;8.98;;
60935;SDS011;46804;51.786;19.520;2023-04-15T17:18:28;14.38;;;9.43;;
60935;SDS011;46804;51.786;19.520;2023-04-15T17:22:29;16.42;;;9.65;;
60935;SDS011;46804;51.786;19.520;2023-04-15T17:26:30;15.32;;;9.65;;
60935;SDS011;46804;51.786;19.520;2023-04-15T17:30:31;14.88;;;9.35;;
60935;SDS011;46804;51.786;19.520;2023-04-15T17:34:32;17.40;;;9.18;;
60935;SDS011;46804;51.786;19.520;2023-04-15T17:38:33;16.00;;;8.35;;
60935;SDS011;46804;51.786;19.520;2023-04-15T17:42:34;16.20;;;9.48;;
60935;SDS011;46804;51.786;19.520;2023-04-15T17:46:34;15.70;;;10.23;;
60935;SDS011;46804;51.786;19.520;2023-04-15T17:50:35;33.72;;;18.65;;
60935;SDS011;46804;51.786;19.520;2023-04-15T17:54:37;33.38;;;19.83;;
60935;SDS011;46804;51.786;19.520;2023-04-15T17:58:38;29.33;;;19.85;;
60935;SDS011;46804;51.786;19.520;2023-04-15T18:02:39;21.42;;;12.48;;
60935;SDS011;46804;51.786;19.520;2023-04-15T18:06:40;16.20;;;10.02;;
60935;SDS011;46804;51.786;19.520;2023-04-15T18:10:41;15.95;;;9.60;;
60935;SDS011;46804;51.786;19.520;2023-04-15T18:14:42;19.63;;;10.00;;
60935;SDS011;46804;51.786;19.520;2023-04-15T18:18:42;23.17;;;8.88;;
60935;SDS011;46804;51.786;19.520;2023-04-15T18:22:43;17.75;;;9.65;;
60935;SDS011;46804;51.786;19.520;2023-04-15T18:26:44;13.98;;;8.57;;
60935;SDS011;46804;51.786;19.520;2023-04-15T18:30:45;12.10;;;7.60;;
60935;SDS011;46804;51.786;19.520;2023-04-15T18:34:47;11.52;;;7.80;;
60935;SDS011;46804;51.786;19.520;2023-04-15T18:38:48;13.40;;;8.27;;
60935;SDS011;46804;51.786;19.520;2023-04-15T18:42:49;8.63;;;4.93;;
60935;SDS011;46804;51.786;19.520;2023-04-15T18:46:50;8.55;;;5.35;;
60935;SDS011;46804;51.786;19.520;2023-04-15T18:50:51;9.27;;;4.93;;
60935;SDS011;46804;51.786;19.520;2023-04-15T18:54:53;6.60;;;4.43;;
60935;SDS011;46804;51.786;19.520;2023-04-15T18:58:54;6.00;;;4.20;;
60935;SDS011;46804;51.786;19.520;2023-04-15T19:02:55;7.05;;;3.13;;
60935;SDS011;46804;51.786;19.520;2023-04-15T19:06:56;6.13;;;4.50;;
60935;SDS011;46804;51.786;19.520;2023-04-15T19:10:58;15.30;;;7.75;;
60935;SDS011;46804;51.786;19.520;2023-04-15T19:14:59;11.38;;;6.13;;
60935;SDS011;46804;51.786;19.520;2023-04-15T19:19:00;9.82;;;4.93;;
60935;SDS011;46804;51.786;19.520;2023-04-15T19:23:00;11.00;;;5.07;;
60935;SDS011;46804;51.786;19.520;2023-04-15T19:27:01;7.07;;;3.95;;
60935;SDS011;46804;51.786;19.520;2023-04-15T19:31:02;32.55;;;13.35;;
60935;SDS011;46804;51.786;19.520;2023-04-15T19:35:03;7.13;;;4.55;;
60935;SDS011;46804;51.786;19.520;2023-04-15T19:39:04;6.20;;;4.07;;
60935;SDS011;46804;51.786;19.520;2023-04-15T19:43:05;6.18;;;3.83;;
60935;SDS011;46804;51.786;19.520;2023-04-15T20:01:32;12.13;;;6.55;;
60935;SDS011;46804;51.786;19.520;2023-04-15T20:05:33;9.80;;;7.07;;
60935;SDS011;46804;51.786;19.520;2023-04-15T20:09:33;9.80;;;7.00;;
60935;SDS011;46804;51.786;19.520;2023-04-15T20:13:35;6.95;;;4.00;;
60935;SDS011;46804;51.786;19.520;2023-04-15T20:17:36;8.55;;;3.85;;
60935;SDS011;46804;51.786;19.520;2023-04-15T20:21:37;5.57;;;3.90;;
60935;SDS011;46804;51.786;19.520;2023-04-15T20:25:38;5.18;;;3.55;;
60935;SDS011;46804;51.786;19.520;2023-04-15T20:29:39;4.00;;;3.10;;
60935;SDS011;46804;51.786;19.520;2023-04-15T20:33:40;7.93;;;3.97;;
60935;SDS011;46804;51.786;19.520;2023-04-15T20:37:42;6.80;;;3.65;;
60935;SDS011;46804;51.786;19.520;2023-04-15T20:41:43;5.97;;;3.42;;
60935;SDS011;46804;51.786;19.520;2023-04-15T20:45:44;10.40;;;3.95;;
60935;SDS011;46804;51.786;19.520;2023-04-15T20:49:44;12.05;;;6.05;;
60935;SDS011;46804;51.786;19.520;2023-04-15T20:53:46;7.20;;;3.47;;
60935;SDS011;46804;51.786;19.520;2023-04-15T20:57:47;6.43;;;3.78;;
60935;SDS011;46804;51.786;19.520;2023-04-15T21:01:48;9.20;;;4.72;;
60935;SDS011;46804;51.786;19.520;2023-04-15T21:05:48;10.50;;;5.05;;
60935;SDS011;46804;51.786;19.520;2023-04-15T21:09:49;10.50;;;5.85;;
60935;SDS011;46804;51.786;19.520;2023-04-15T21:13:50;9.27;;;5.05;;
60935;SDS011;46804;51.786;19.520;2023-04-15T21:17:50;11.02;;;5.63;;
60935;SDS011;46804;51.786;19.520;2023-04-15T21:21:51;9.00;;;5.13;;
60935;SDS011;46804;51.786;19.520;2023-04-15T21:25:52;9.90;;;4.70;;
60935;SDS011;46804;51.786;19.520;2023-04-15T21:29:52;10.52;;;4.72;;
60935;SDS011;46804;51.786;19.520;2023-04-15T21:33:53;7.53;;;4.53;;
60935;SDS011;46804;51.786;19.520;2023-04-15T21:37:54;8.55;;;4.65;;
60935;SDS011;46804;51.786;19.520;2023-04-15T21:41:55;11.63;;;5.20;;
60935;SDS011;46804;51.786;19.520;2023-04-15T21:45:57;10.40;;;5.90;;
60935;SDS011;46804;51.786;19.520;2023-04-15T21:49:57;8.35;;;5.18;;
60935;SDS011;46804;51.786;19.520;2023-04-15T21:53:58;9.57;;;5.97;;
60935;SDS011;46804;51.786;19.520;2023-04-15T21:57:59;10.68;;;5.65;;
60935;SDS011;46804;51.786;19.520;2023-04-15T22:02:00;14.52;;;7.05;;
60935;SDS011;46804;51.786;19.520;2023-04-15T22:06:03;13.85;;;7.90;;
60935;SDS011;46804;51.786;19.520;2023-04-15T22:14:05;15.32;;;7.78;;
60935;SDS011;46804;51.786;19.520;2023-04-15T22:18:06;25.13;;;10.48;;
60935;SDS011;46804;51.786;19.520;2023-04-15T22:22:06;21.58;;;11.27;;
60935;SDS011;46804;51.786;19.520;2023-04-15T22:26:07;15.65;;;8.73;;
60935;SDS011;46804;51.786;19.520;2023-04-15T22:30:08;13.10;;;7.47;;
60935;SDS011;46804;51.786;19.520;2023-04-15T22:34:10;15.00;;;7.63;;
60935;SDS011;46804;51.786;19.520;2023-04-15T22:38:11;11.93;;;6.65;;
60935;SDS011;46804;51.786;19.520;2023-04-15T22:42:11;13.07;;;6.55;;
60935;SDS011;46804;51.786;19.520;2023-04-15T22:46:12;12.65;;;6.18;;
60935;SDS011;46804;51.786;19.520;2023-04-15T22:50:13;10.07;;;5.72;;
60935;SDS011;46804;51.786;19.520;2023-04-15T22:54:14;10.23;;;6.15;;
60935;SDS011;46804;51.786;19.520;2023-04-15T22:58:15;10.65;;;6.57;;
60935;SDS011;46804;51.786;19.520;2023-04-15T23:02:17;10.80;;;7.07;;
60935;SDS011;46804;51.786;19.520;2023-04-15T23:06:18;14.07;;;7.25;;
60935;SDS011;46804;51.786;19.520;2023-04-15T23:10:19;13.20;;;7.05;;
60935;SDS011;46804;51.786;19.520;2023-04-15T23:14:19;12.35;;;7.68;;
60935;SDS011;46804;51.786;19.520;2023-04-15T23:18:20;11.75;;;7.45;;
60935;SDS011;46804;51.786;19.520;2023-04-15T23:22:21;14.43;;;7.60;;
60935;SDS011;46804;51.786;19.520;2023-04-15T23:26:22;16.10;;;8.45;;
60935;SDS011;46804;51.786;19.520;2023-04-15T23:30:23;15.38;;;9.15;;
60935;SDS011;46804;51.786;19.520;2023-04-15T23:34:24;14.48;;;9.27;;
60935;SDS011;46804;51.786;19.520;2023-04-15T23:38:25;15.32;;;9.23;;
60935;SDS011;46804;51.786;19.520;2023-04-15T23:42:26;17.67;;;9.63;;
60935;SDS011;46804;51.786;19.520;2023-04-15T23:46:27;15.20;;;9.82;;
60935;SDS011;46804;51.786;19.520;2023-04-15T23:50:27;18.00;;;9.93;;
60935;SDS011;46804;51.786;19.520;2023-04-15T23:54:28;14.60;;;9.57;;
60935;SDS011;46804;51.786;19.520;2023-04-15T23:58:29;17.50;;;9.95;;
